ARG0689 SAZS-SABE
Flight info
| Callsign | ARG0689 |
|---|---|
| Flight time | 1h 52m |
| Altitude | 33000 |
| Route | LIMAY2C LIMAY UW26 EGUNO UZ109 ISMIL UT655 ASADA |
| Aircraft | MD82/M-SDFGIRWY/C |
Departure
| Time | 2026-05-07 00:28 |
|---|---|
| Airport | Teniente Luis Candelaria International Airport (SAZS) |
Arrival
| Time | 2026-05-07 02:21 |
|---|---|
| Airport | Aeroparque Jorge Newbery (SABE) |
| Time | Latitude | Longitude | Altitude | Speed | Heading |
|---|---|---|---|---|---|
| 2026-05-06 23:53 | -41.14777 | -71.15928 | 2784 ft | 0 kts | 25° |
| 2026-05-07 00:16 | -41.14783 | -71.15932 | 2784 ft | 2 kts | 25° |
| 2026-05-07 00:16 | -41.14799 | -71.15941 | 2784 ft | 3 kts | 25° |
| 2026-05-07 00:16 | -41.14817 | -71.15952 | 2784 ft | 3 kts | 25° |
| 2026-05-07 00:17 | -41.14824 | -71.15956 | 2784 ft | 0 kts | 25° |
| 2026-05-07 00:19 | -41.14823 | -71.15956 | 2784 ft | 0 kts | 25° |
| 2026-05-07 00:22 | -41.14815 | -71.15934 | 2784 ft | 4 kts | 96° |
| 2026-05-07 00:22 | -41.14848 | -71.15873 | 2784 ft | 13 kts | 126° |
| 2026-05-07 00:22 | -41.14927 | -71.15731 | 2784 ft | 22 kts | 126° |
| 2026-05-07 00:22 | -41.14958 | -71.15598 | 2784 ft | 13 kts | 105° |
| 2026-05-07 00:23 | -41.14991 | -71.15488 | 2784 ft | 13 kts | 112° |
| 2026-05-07 00:23 | -41.15027 | -71.15378 | 2784 ft | 14 kts | 115° |
| 2026-05-07 00:23 | -41.15072 | -71.15255 | 2784 ft | 16 kts | 116° |
| 2026-05-07 00:23 | -41.15123 | -71.15115 | 2784 ft | 18 kts | 115° |
| 2026-05-07 00:24 | -41.15178 | -71.14958 | 2784 ft | 20 kts | 114° |
| 2026-05-07 00:24 | -41.15238 | -71.14783 | 2784 ft | 22 kts | 115° |
| 2026-05-07 00:24 | -41.15279 | -71.14667 | 2784 ft | 11 kts | 115° |
| 2026-05-07 00:24 | -41.15313 | -71.14569 | 2784 ft | 14 kts | 115° |
| 2026-05-07 00:25 | -41.15356 | -71.14449 | 2784 ft | 14 kts | 115° |
| 2026-05-07 00:25 | -41.15399 | -71.14329 | 2784 ft | 16 kts | 115° |
| 2026-05-07 00:25 | -41.15438 | -71.14226 | 2784 ft | 11 kts | 120° |
| 2026-05-07 00:25 | -41.15492 | -71.14170 | 2784 ft | 10 kts | 165° |
| 2026-05-07 00:26 | -41.15514 | -71.14168 | 2784 ft | 0 kts | 184° |
| 2026-05-07 00:26 | -41.15515 | -71.14168 | 2784 ft | 1 kts | 184° |
| 2026-05-07 00:26 | -41.15557 | -71.14182 | 2784 ft | 10 kts | 211° |
| 2026-05-07 00:27 | -41.15564 | -71.14262 | 2784 ft | 0 kts | 288° |
| 2026-05-07 00:27 | -41.15563 | -71.14262 | 2784 ft | 0 kts | 288° |
| 2026-05-07 00:27 | -41.15562 | -71.14267 | 2784 ft | 9 kts | 289° |
| 2026-05-07 00:28 | -41.15432 | -71.14645 | 2784 ft | 80 kts | 295° |
| 2026-05-07 00:28 | -41.15097 | -71.15584 | 2784 ft | 142 kts | 294° |
| 2026-05-07 00:28 | -41.14610 | -71.16944 | 3033 ft | 173 kts | 294° |
| 2026-05-07 00:28 | -41.14104 | -71.18309 | 4141 ft | 155 kts | 292° |
| 2026-05-07 00:29 | -41.13675 | -71.19628 | 4859 ft | 166 kts | 290° |
| 2026-05-07 00:29 | -41.13222 | -71.21139 | 5462 ft | 178 kts | 290° |
| 2026-05-07 00:30 | -41.11625 | -71.25772 | 7605 ft | 188 kts | 293° |
| 2026-05-07 00:30 | -41.11047 | -71.27407 | 7878 ft | 207 kts | 293° |
| 2026-05-07 00:30 | -41.10431 | -71.29184 | 8315 ft | 217 kts | 293° |
| 2026-05-07 00:30 | -41.10219 | -71.29801 | 8468 ft | 220 kts | 293° |
| 2026-05-07 00:31 | -41.09114 | -71.33090 | 8978 ft | 249 kts | 292° |
| 2026-05-07 00:31 | -41.08642 | -71.34523 | 9336 ft | 252 kts | 292° |
| 2026-05-07 00:31 | -41.07622 | -71.37380 | 9888 ft | 269 kts | 302° |
| 2026-05-07 00:31 | -41.06272 | -71.39195 | 10208 ft | 283 kts | 324° |
| 2026-05-07 00:32 | -41.04480 | -71.40258 | 10933 ft | 283 kts | 345° |
| 2026-05-07 00:32 | -41.02508 | -71.40336 | 11604 ft | 286 kts | 7° |
| 2026-05-07 00:32 | -41.00693 | -71.39401 | 12461 ft | 277 kts | 33° |
| 2026-05-07 00:32 | -40.99393 | -71.37608 | 13369 ft | 266 kts | 56° |
| 2026-05-07 00:33 | -40.98586 | -71.35386 | 13824 ft | 276 kts | 70° |
| 2026-05-07 00:33 | -40.98056 | -71.32809 | 13782 ft | 303 kts | 78° |
| 2026-05-07 00:33 | -40.97729 | -71.30983 | 14009 ft | 309 kts | 71° |
| 2026-05-07 00:33 | -40.96859 | -71.28413 | 14811 ft | 300 kts | 65° |
| 2026-05-07 00:34 | -40.95968 | -71.25108 | 16119 ft | 282 kts | 74° |
| 2026-05-07 00:34 | -40.95619 | -71.23413 | 16472 ft | 284 kts | 74° |
| 2026-05-07 00:34 | -40.95001 | -71.20860 | 16668 ft | 300 kts | 69° |
| 2026-05-07 00:34 | -40.94170 | -71.18269 | 16773 ft | 317 kts | 63° |
| 2026-05-07 00:35 | -40.93124 | -71.15628 | 16910 ft | 332 kts | 59° |
| 2026-05-07 00:35 | -40.91914 | -71.12942 | 17060 ft | 347 kts | 56° |
| 2026-05-07 00:35 | -40.90586 | -71.10192 | 17218 ft | 362 kts | 55° |
| 2026-05-07 00:35 | -40.89194 | -71.07368 | 17533 ft | 370 kts | 55° |
| 2026-05-07 00:36 | -40.87776 | -71.04498 | 18027 ft | 374 kts | 55° |
| 2026-05-07 00:36 | -40.86365 | -71.01590 | 18493 ft | 378 kts | 55° |
| 2026-05-07 00:36 | -40.84975 | -70.98686 | 18992 ft | 380 kts | 55° |
| 2026-05-07 00:36 | -40.83824 | -70.96257 | 19406 ft | 382 kts | 55° |
| 2026-05-07 00:37 | -40.82431 | -70.93297 | 19874 ft | 385 kts | 55° |
| 2026-05-07 00:37 | -40.81017 | -70.90271 | 20338 ft | 387 kts | 55° |
| 2026-05-07 00:37 | -40.79605 | -70.87232 | 20824 ft | 389 kts | 55° |
| 2026-05-07 00:37 | -40.78173 | -70.84175 | 21272 ft | 392 kts | 54° |
| 2026-05-07 00:38 | -40.76736 | -70.81124 | 21781 ft | 392 kts | 54° |
| 2026-05-07 00:38 | -40.75281 | -70.78057 | 22208 ft | 395 kts | 54° |
| 2026-05-07 00:38 | -40.73796 | -70.74967 | 22562 ft | 399 kts | 53° |
| 2026-05-07 00:38 | -40.72314 | -70.71877 | 23064 ft | 398 kts | 54° |
| 2026-05-07 00:39 | -40.70841 | -70.68787 | 23559 ft | 398 kts | 54° |
| 2026-05-07 00:39 | -40.69380 | -70.65716 | 23897 ft | 401 kts | 54° |
| 2026-05-07 00:39 | -40.67882 | -70.62560 | 24314 ft | 402 kts | 54° |
| 2026-05-07 00:39 | -40.66407 | -70.59461 | 24669 ft | 404 kts | 54° |
| 2026-05-07 00:40 | -40.64891 | -70.56324 | 25018 ft | 406 kts | 53° |
| 2026-05-07 00:40 | -40.63372 | -70.53170 | 25382 ft | 408 kts | 54° |
| 2026-05-07 00:40 | -40.61852 | -70.50001 | 25765 ft | 409 kts | 53° |
| 2026-05-07 00:40 | -40.60323 | -70.46831 | 26093 ft | 411 kts | 53° |
| 2026-05-07 00:41 | -40.58789 | -70.43634 | 26433 ft | 413 kts | 54° |
| 2026-05-07 00:41 | -40.57258 | -70.40424 | 26748 ft | 414 kts | 54° |
| 2026-05-07 00:41 | -40.55710 | -70.37217 | 27051 ft | 416 kts | 53° |
| 2026-05-07 00:41 | -40.54155 | -70.33995 | 27368 ft | 417 kts | 53° |
| 2026-05-07 00:42 | -40.52588 | -70.30774 | 27658 ft | 419 kts | 53° |
| 2026-05-07 00:42 | -40.51019 | -70.27526 | 27950 ft | 420 kts | 54° |
| 2026-05-07 00:42 | -40.49451 | -70.24284 | 28220 ft | 422 kts | 53° |
| 2026-05-07 00:42 | -40.47889 | -70.21066 | 28481 ft | 423 kts | 53° |
| 2026-05-07 00:43 | -40.46282 | -70.17767 | 28675 ft | 426 kts | 53° |
| 2026-05-07 00:43 | -40.44694 | -70.14501 | 28765 ft | 432 kts | 54° |
| 2026-05-07 00:43 | -40.43069 | -70.11179 | 29010 ft | 433 kts | 53° |
| 2026-05-07 00:43 | -40.41438 | -70.07846 | 29263 ft | 434 kts | 53° |
| 2026-05-07 00:44 | -40.39812 | -70.04511 | 29509 ft | 435 kts | 53° |
| 2026-05-07 00:44 | -40.38181 | -70.01157 | 29764 ft | 436 kts | 53° |
| 2026-05-07 00:44 | -40.36547 | -69.97797 | 29988 ft | 437 kts | 53° |
| 2026-05-07 00:44 | -40.34902 | -69.94433 | 30193 ft | 438 kts | 53° |
| 2026-05-07 00:45 | -40.33257 | -69.91078 | 30408 ft | 439 kts | 53° |
| 2026-05-07 00:45 | -40.31604 | -69.87705 | 30635 ft | 438 kts | 53° |
| 2026-05-07 00:45 | -40.29945 | -69.84358 | 30817 ft | 440 kts | 53° |
| 2026-05-07 00:45 | -40.28280 | -69.80982 | 31023 ft | 440 kts | 53° |
| 2026-05-07 00:46 | -40.26624 | -69.77599 | 31229 ft | 440 kts | 53° |
| 2026-05-07 00:46 | -40.24988 | -69.74282 | 31377 ft | 441 kts | 53° |
| 2026-05-07 00:46 | -40.23313 | -69.70907 | 31497 ft | 443 kts | 53° |
| 2026-05-07 00:46 | -40.21619 | -69.67468 | 31642 ft | 444 kts | 53° |
| 2026-05-07 00:47 | -40.19974 | -69.64115 | 31807 ft | 444 kts | 53° |
| 2026-05-07 00:47 | -40.18294 | -69.60705 | 31929 ft | 445 kts | 53° |
| 2026-05-07 00:47 | -40.16609 | -69.57320 | 32130 ft | 444 kts | 53° |
| 2026-05-07 00:47 | -40.14924 | -69.53919 | 32253 ft | 445 kts | 53° |
| 2026-05-07 00:48 | -40.13244 | -69.50522 | 32397 ft | 446 kts | 53° |
| 2026-05-07 00:48 | -40.11559 | -69.47114 | 32534 ft | 446 kts | 53° |
| 2026-05-07 00:48 | -40.08158 | -69.40295 | 32766 ft | 448 kts | 52° |
| 2026-05-07 00:49 | -40.06451 | -69.36897 | 32900 ft | 448 kts | 52° |
| 2026-05-07 00:49 | -40.04769 | -69.33531 | 32950 ft | 449 kts | 53° |
| 2026-05-07 00:49 | -40.01335 | -69.26659 | 32965 ft | 448 kts | 52° |
| 2026-05-07 00:50 | -39.97943 | -69.19916 | 32965 ft | 446 kts | 52° |
| 2026-05-07 00:50 | -39.94570 | -69.13205 | 32965 ft | 439 kts | 52° |
| 2026-05-07 00:51 | -39.91233 | -69.06561 | 32965 ft | 439 kts | 52° |
| 2026-05-07 00:51 | -39.87884 | -68.99898 | 32965 ft | 440 kts | 52° |
| 2026-05-07 00:52 | -39.84503 | -68.93248 | 32965 ft | 440 kts | 52° |
| 2026-05-07 00:52 | -39.81138 | -68.86602 | 32965 ft | 439 kts | 52° |
| 2026-05-07 00:53 | -39.77761 | -68.79977 | 32965 ft | 439 kts | 52° |
| 2026-05-07 00:53 | -39.74409 | -68.73375 | 32891 ft | 440 kts | 52° |
| 2026-05-07 00:54 | -39.71029 | -68.66755 | 32822 ft | 440 kts | 51° |
| 2026-05-07 00:54 | -39.67630 | -68.60090 | 32818 ft | 445 kts | 51° |
| 2026-05-07 00:55 | -39.64202 | -68.53387 | 32817 ft | 446 kts | 51° |
| 2026-05-07 00:55 | -39.60756 | -68.46694 | 32817 ft | 445 kts | 51° |
| 2026-05-07 00:56 | -39.57306 | -68.40028 | 32817 ft | 444 kts | 51° |
| 2026-05-07 00:56 | -39.53865 | -68.33372 | 32817 ft | 444 kts | 51° |
| 2026-05-07 00:57 | -39.50440 | -68.26760 | 32817 ft | 445 kts | 51° |
| 2026-05-07 00:57 | -39.46981 | -68.20117 | 32817 ft | 445 kts | 51° |
| 2026-05-07 00:58 | -39.43531 | -68.13459 | 32817 ft | 445 kts | 51° |
| 2026-05-07 00:58 | -39.40077 | -68.06779 | 32817 ft | 445 kts | 51° |
| 2026-05-07 00:59 | -39.34869 | -67.96842 | 32817 ft | 445 kts | 51° |
| 2026-05-07 01:00 | -39.31411 | -67.90257 | 32817 ft | 445 kts | 51° |
| 2026-05-07 01:00 | -39.27949 | -67.83644 | 32817 ft | 445 kts | 51° |
| 2026-05-07 01:01 | -39.24466 | -67.77012 | 32817 ft | 445 kts | 51° |
| 2026-05-07 01:01 | -39.20961 | -67.70396 | 32817 ft | 449 kts | 50° |
| 2026-05-07 01:02 | -39.17440 | -67.63723 | 32817 ft | 450 kts | 50° |
| 2026-05-07 01:02 | -39.13913 | -67.57030 | 32817 ft | 450 kts | 50° |
| 2026-05-07 01:03 | -39.10407 | -67.50420 | 32817 ft | 449 kts | 49° |
| 2026-05-07 01:03 | -39.06875 | -67.43786 | 32817 ft | 449 kts | 50° |
| 2026-05-07 01:04 | -39.03334 | -67.37160 | 32817 ft | 449 kts | 49° |
| 2026-05-07 01:04 | -38.99783 | -67.30528 | 32817 ft | 449 kts | 49° |
| 2026-05-07 01:05 | -38.96237 | -67.23908 | 32817 ft | 449 kts | 49° |
| 2026-05-07 01:05 | -38.92677 | -67.17294 | 32817 ft | 451 kts | 50° |
| 2026-05-07 01:06 | -38.89098 | -67.10634 | 32817 ft | 453 kts | 50° |
| 2026-05-07 01:06 | -38.85527 | -67.04031 | 32817 ft | 453 kts | 50° |
| 2026-05-07 01:07 | -38.81937 | -66.97397 | 32817 ft | 452 kts | 50° |
| 2026-05-07 01:07 | -38.78357 | -66.90761 | 32817 ft | 452 kts | 50° |
| 2026-05-07 01:08 | -38.74772 | -66.84141 | 32817 ft | 452 kts | 50° |
| 2026-05-07 01:08 | -38.71179 | -66.77539 | 32818 ft | 451 kts | 51° |
| 2026-05-07 01:09 | -38.67590 | -66.70996 | 32817 ft | 447 kts | 50° |
| 2026-05-07 01:09 | -38.64011 | -66.64481 | 32817 ft | 448 kts | 51° |
| 2026-05-07 01:10 | -38.60444 | -66.57997 | 32817 ft | 449 kts | 51° |
| 2026-05-07 01:10 | -38.56849 | -66.51478 | 32817 ft | 449 kts | 51° |
| 2026-05-07 01:11 | -38.53265 | -66.44940 | 32817 ft | 448 kts | 51° |
| 2026-05-07 01:11 | -38.49678 | -66.38425 | 32817 ft | 448 kts | 51° |
| 2026-05-07 01:12 | -38.46095 | -66.31898 | 32817 ft | 448 kts | 50° |
| 2026-05-07 01:12 | -38.42481 | -66.25404 | 32817 ft | 448 kts | 50° |
| 2026-05-07 01:13 | -38.38896 | -66.18960 | 32817 ft | 448 kts | 50° |
| 2026-05-07 01:13 | -38.35295 | -66.12443 | 32817 ft | 449 kts | 50° |
| 2026-05-07 01:14 | -38.31676 | -66.05953 | 32817 ft | 449 kts | 50° |
| 2026-05-07 01:14 | -38.28666 | -66.00567 | 32817 ft | 449 kts | 50° |
| 2026-05-07 01:15 | -38.25034 | -65.94089 | 32817 ft | 449 kts | 50° |
| 2026-05-07 01:15 | -38.21393 | -65.87640 | 32817 ft | 448 kts | 48° |
| 2026-05-07 01:16 | -38.17758 | -65.81193 | 32817 ft | 448 kts | 48° |
| 2026-05-07 01:16 | -38.14114 | -65.74751 | 32817 ft | 448 kts | 48° |
| 2026-05-07 01:17 | -38.10481 | -65.68322 | 32817 ft | 446 kts | 47° |
| 2026-05-07 01:17 | -38.06865 | -65.61963 | 32817 ft | 443 kts | 47° |
| 2026-05-07 01:18 | -38.03288 | -65.55661 | 32817 ft | 443 kts | 48° |
| 2026-05-07 01:18 | -37.99662 | -65.49265 | 32817 ft | 444 kts | 47° |
| 2026-05-07 01:19 | -37.96021 | -65.42896 | 32817 ft | 444 kts | 47° |
| 2026-05-07 01:19 | -37.92399 | -65.36563 | 32817 ft | 444 kts | 47° |
| 2026-05-07 01:20 | -37.88768 | -65.30234 | 32817 ft | 444 kts | 47° |
| 2026-05-07 01:20 | -37.85139 | -65.23910 | 32817 ft | 443 kts | 47° |
| 2026-05-07 01:21 | -37.81558 | -65.17662 | 32817 ft | 436 kts | 47° |
| 2026-05-07 01:21 | -37.78005 | -65.11470 | 32817 ft | 434 kts | 46° |
| 2026-05-07 01:22 | -37.74434 | -65.05294 | 32817 ft | 436 kts | 46° |
| 2026-05-07 01:22 | -37.70842 | -64.99112 | 32817 ft | 435 kts | 45° |
| 2026-05-07 01:23 | -37.67265 | -64.92958 | 32817 ft | 434 kts | 45° |
| 2026-05-07 01:23 | -37.63671 | -64.86805 | 32817 ft | 434 kts | 45° |
| 2026-05-07 01:24 | -37.60117 | -64.80711 | 32817 ft | 434 kts | 45° |
| 2026-05-07 01:24 | -37.56531 | -64.74575 | 32817 ft | 434 kts | 45° |
| 2026-05-07 01:25 | -37.52923 | -64.68440 | 32817 ft | 435 kts | 43° |
| 2026-05-07 01:25 | -37.49304 | -64.62397 | 32817 ft | 432 kts | 41° |
| 2026-05-07 01:26 | -37.45440 | -64.56634 | 32818 ft | 431 kts | 40° |
| 2026-05-07 01:26 | -37.41729 | -64.50652 | 32818 ft | 435 kts | 44° |
| 2026-05-07 01:27 | -37.38214 | -64.44410 | 32817 ft | 437 kts | 45° |
| 2026-05-07 01:27 | -37.34719 | -64.38149 | 32817 ft | 437 kts | 45° |
| 2026-05-07 01:28 | -37.31331 | -64.31748 | 32817 ft | 440 kts | 47° |
| 2026-05-07 01:28 | -37.28171 | -64.25171 | 32817 ft | 444 kts | 50° |
| 2026-05-07 01:29 | -37.27139 | -64.22883 | 32817 ft | 445 kts | 50° |
| 2026-05-07 01:30 | -37.18737 | -64.04046 | 32817 ft | 448 kts | 49° |
| 2026-05-07 01:30 | -37.16138 | -63.98431 | 32817 ft | 447 kts | 49° |
| 2026-05-07 01:31 | -37.12990 | -63.91654 | 32817 ft | 447 kts | 49° |
| 2026-05-07 01:31 | -37.09896 | -63.84902 | 32817 ft | 447 kts | 49° |
| 2026-05-07 01:32 | -37.06772 | -63.78194 | 32772 ft | 450 kts | 49° |
| 2026-05-07 01:32 | -37.03638 | -63.71402 | 32759 ft | 451 kts | 49° |
| 2026-05-07 01:33 | -37.00456 | -63.64585 | 32758 ft | 456 kts | 49° |
| 2026-05-07 01:33 | -36.99214 | -63.60836 | 32757 ft | 479 kts | 65° |
| 2026-05-07 01:33 | -36.98775 | -63.56618 | 32760 ft | 499 kts | 81° |
| 2026-05-07 01:34 | -36.98775 | -63.47971 | 32761 ft | 492 kts | 75° |
| 2026-05-07 01:34 | -36.98105 | -63.43864 | 32760 ft | 475 kts | 62° |
| 2026-05-07 01:34 | -36.96875 | -63.40099 | 32761 ft | 460 kts | 52° |
| 2026-05-07 01:35 | -36.93610 | -63.33349 | 32760 ft | 450 kts | 46° |
| 2026-05-07 01:35 | -36.90317 | -63.26644 | 32759 ft | 456 kts | 49° |
| 2026-05-07 01:36 | -36.87369 | -63.19547 | 32759 ft | 462 kts | 53° |
| 2026-05-07 01:36 | -36.84606 | -63.12267 | 32759 ft | 465 kts | 54° |
| 2026-05-07 01:37 | -36.81802 | -63.05035 | 32758 ft | 464 kts | 53° |
| 2026-05-07 01:37 | -36.78902 | -62.97840 | 32758 ft | 463 kts | 52° |
| 2026-05-07 01:38 | -36.75975 | -62.90683 | 32758 ft | 462 kts | 52° |
| 2026-05-07 01:38 | -36.73038 | -62.83549 | 32758 ft | 462 kts | 52° |
| 2026-05-07 01:39 | -36.70083 | -62.76413 | 32758 ft | 464 kts | 52° |
| 2026-05-07 01:39 | -36.67142 | -62.69222 | 32758 ft | 466 kts | 53° |
| 2026-05-07 01:40 | -36.64205 | -62.61983 | 32759 ft | 470 kts | 53° |
| 2026-05-07 01:40 | -36.61264 | -62.54761 | 32758 ft | 470 kts | 53° |
| 2026-05-07 01:41 | -36.58301 | -62.47509 | 32758 ft | 469 kts | 52° |
| 2026-05-07 01:41 | -36.55301 | -62.40297 | 32758 ft | 468 kts | 52° |
| 2026-05-07 01:42 | -36.52314 | -62.33089 | 32758 ft | 469 kts | 52° |
| 2026-05-07 01:42 | -36.49351 | -62.25924 | 32758 ft | 469 kts | 52° |
| 2026-05-07 01:43 | -36.46363 | -62.18714 | 32758 ft | 469 kts | 52° |
| 2026-05-07 01:43 | -36.43340 | -62.11490 | 32758 ft | 473 kts | 53° |
| 2026-05-07 01:44 | -36.40333 | -62.04202 | 32758 ft | 474 kts | 53° |
| 2026-05-07 01:44 | -36.37323 | -61.96936 | 32758 ft | 472 kts | 52° |
| 2026-05-07 01:45 | -36.34275 | -61.89731 | 32758 ft | 471 kts | 52° |
| 2026-05-07 01:45 | -36.31267 | -61.82543 | 32758 ft | 472 kts | 53° |
| 2026-05-07 01:46 | -36.28239 | -61.75322 | 32758 ft | 471 kts | 52° |
| 2026-05-07 01:46 | -36.25204 | -61.68101 | 32758 ft | 473 kts | 53° |
| 2026-05-07 01:47 | -36.22155 | -61.60842 | 32758 ft | 476 kts | 53° |
| 2026-05-07 01:47 | -36.19093 | -61.53598 | 32758 ft | 477 kts | 53° |
| 2026-05-07 01:48 | -36.16011 | -61.46338 | 32758 ft | 476 kts | 52° |
| 2026-05-07 01:48 | -36.12923 | -61.39086 | 32758 ft | 476 kts | 52° |
| 2026-05-07 01:49 | -36.09829 | -61.31849 | 32758 ft | 475 kts | 52° |
| 2026-05-07 01:49 | -36.06731 | -61.24626 | 32758 ft | 475 kts | 52° |
| 2026-05-07 01:50 | -36.03619 | -61.17411 | 32758 ft | 476 kts | 52° |
| 2026-05-07 01:50 | -36.00513 | -61.10143 | 32758 ft | 479 kts | 53° |
| 2026-05-07 01:51 | -35.97402 | -61.02876 | 32758 ft | 478 kts | 52° |
| 2026-05-07 01:51 | -35.94254 | -60.95644 | 32758 ft | 478 kts | 52° |
| 2026-05-07 01:52 | -35.91165 | -60.88448 | 32758 ft | 478 kts | 53° |
| 2026-05-07 01:52 | -35.88038 | -60.81219 | 32758 ft | 477 kts | 52° |
| 2026-05-07 01:53 | -35.84905 | -60.73989 | 32758 ft | 477 kts | 52° |
| 2026-05-07 01:53 | -35.81776 | -60.66758 | 32758 ft | 477 kts | 52° |
| 2026-05-07 01:54 | -35.78616 | -60.59559 | 32758 ft | 477 kts | 52° |
| 2026-05-07 01:54 | -35.75494 | -60.52398 | 32758 ft | 477 kts | 52° |
| 2026-05-07 01:55 | -35.72315 | -60.45207 | 32758 ft | 477 kts | 52° |
| 2026-05-07 01:55 | -35.69152 | -60.38014 | 32758 ft | 478 kts | 53° |
| 2026-05-07 01:56 | -35.66023 | -60.30840 | 32758 ft | 478 kts | 53° |
| 2026-05-07 01:56 | -35.62853 | -60.23663 | 32758 ft | 478 kts | 53° |
| 2026-05-07 01:57 | -35.59694 | -60.16506 | 32737 ft | 475 kts | 52° |
| 2026-05-07 01:57 | -35.58094 | -60.12932 | 32410 ft | 476 kts | 52° |
| 2026-05-07 01:57 | -35.56508 | -60.09391 | 31983 ft | 472 kts | 52° |
| 2026-05-07 01:57 | -35.54949 | -60.05864 | 31535 ft | 467 kts | 52° |
| 2026-05-07 01:58 | -35.53394 | -60.02362 | 31084 ft | 465 kts | 52° |
| 2026-05-07 01:58 | -35.51837 | -59.98874 | 30631 ft | 463 kts | 52° |
| 2026-05-07 01:58 | -35.50289 | -59.95419 | 30181 ft | 461 kts | 52° |
| 2026-05-07 01:58 | -35.48761 | -59.91976 | 29730 ft | 457 kts | 52° |
| 2026-05-07 01:59 | -35.47247 | -59.88566 | 29280 ft | 453 kts | 52° |
| 2026-05-07 01:59 | -35.45736 | -59.85189 | 28829 ft | 450 kts | 52° |
| 2026-05-07 01:59 | -35.44738 | -59.82965 | 28531 ft | 451 kts | 52° |
| 2026-05-07 01:59 | -35.42677 | -59.78369 | 27931 ft | 470 kts | 52° |
| 2026-05-07 02:00 | -35.41108 | -59.74880 | 27486 ft | 470 kts | 52° |
| 2026-05-07 02:00 | -35.40575 | -59.73693 | 27333 ft | 468 kts | 52° |
| 2026-05-07 02:00 | -35.36475 | -59.64513 | 26188 ft | 457 kts | 54° |
| 2026-05-07 02:01 | -35.34959 | -59.61104 | 25786 ft | 454 kts | 54° |
| 2026-05-07 02:01 | -35.33434 | -59.57716 | 25385 ft | 457 kts | 54° |
| 2026-05-07 02:01 | -35.31870 | -59.54291 | 24985 ft | 463 kts | 54° |
| 2026-05-07 02:01 | -35.30305 | -59.50854 | 24585 ft | 461 kts | 54° |
| 2026-05-07 02:02 | -35.28749 | -59.47434 | 24183 ft | 458 kts | 54° |
| 2026-05-07 02:02 | -35.27201 | -59.44039 | 23783 ft | 455 kts | 54° |
| 2026-05-07 02:02 | -35.25660 | -59.40660 | 23381 ft | 452 kts | 54° |
| 2026-05-07 02:02 | -35.24142 | -59.37299 | 22980 ft | 449 kts | 54° |
| 2026-05-07 02:03 | -35.22635 | -59.33968 | 22579 ft | 443 kts | 54° |
| 2026-05-07 02:03 | -35.21168 | -59.30702 | 22179 ft | 436 kts | 54° |
| 2026-05-07 02:03 | -35.19714 | -59.27468 | 21778 ft | 429 kts | 53° |
| 2026-05-07 02:03 | -35.18764 | -59.25377 | 21512 ft | 421 kts | 53° |
| 2026-05-07 02:04 | -35.16903 | -59.21300 | 20968 ft | 408 kts | 53° |
| 2026-05-07 02:04 | -35.15526 | -59.18302 | 20503 ft | 401 kts | 53° |
| 2026-05-07 02:04 | -35.14169 | -59.15355 | 20028 ft | 394 kts | 53° |
| 2026-05-07 02:04 | -35.12837 | -59.12463 | 19553 ft | 389 kts | 53° |
| 2026-05-07 02:05 | -35.11515 | -59.09589 | 19075 ft | 384 kts | 53° |
| 2026-05-07 02:05 | -35.10653 | -59.07712 | 18759 ft | 380 kts | 53° |
| 2026-05-07 02:05 | -35.08935 | -59.03981 | 18123 ft | 374 kts | 53° |
| 2026-05-07 02:05 | -35.07656 | -59.01218 | 17645 ft | 370 kts | 53° |
| 2026-05-07 02:06 | -35.06421 | -58.98525 | 17175 ft | 366 kts | 53° |
| 2026-05-07 02:06 | -35.05589 | -58.96702 | 16854 ft | 364 kts | 54° |
| 2026-05-07 02:06 | -35.03964 | -58.93155 | 16223 ft | 359 kts | 54° |
| 2026-05-07 02:06 | -35.02745 | -58.90517 | 15747 ft | 355 kts | 54° |
| 2026-05-07 02:07 | -35.01540 | -58.87904 | 15271 ft | 352 kts | 54° |
| 2026-05-07 02:07 | -34.99167 | -58.82722 | 14317 ft | 346 kts | 55° |
| 2026-05-07 02:07 | -34.98388 | -58.81035 | 14002 ft | 344 kts | 54° |
| 2026-05-07 02:08 | -34.96819 | -58.77656 | 13365 ft | 340 kts | 54° |
| 2026-05-07 02:08 | -34.95660 | -58.75154 | 12889 ft | 338 kts | 54° |
| 2026-05-07 02:08 | -34.94499 | -58.72675 | 12413 ft | 335 kts | 53° |
| 2026-05-07 02:08 | -34.93357 | -58.70247 | 11944 ft | 333 kts | 54° |
| 2026-05-07 02:09 | -34.92220 | -58.67794 | 11468 ft | 331 kts | 54° |
| 2026-05-07 02:09 | -34.91087 | -58.65362 | 10992 ft | 328 kts | 53° |
| 2026-05-07 02:09 | -34.89965 | -58.62966 | 10501 ft | 321 kts | 53° |
| 2026-05-07 02:09 | -34.88884 | -58.60645 | 10054 ft | 308 kts | 53° |
| 2026-05-07 02:10 | -34.87862 | -58.58423 | 9703 ft | 294 kts | 53° |
| 2026-05-07 02:10 | -34.87206 | -58.57004 | 9459 ft | 286 kts | 52° |
| 2026-05-07 02:10 | -34.85937 | -58.54249 | 8975 ft | 272 kts | 52° |
| 2026-05-07 02:10 | -34.85016 | -58.52272 | 8627 ft | 264 kts | 51° |
| 2026-05-07 02:11 | -34.84117 | -58.50350 | 8269 ft | 261 kts | 51° |
| 2026-05-07 02:11 | -34.83525 | -58.49086 | 8042 ft | 259 kts | 51° |
| 2026-05-07 02:11 | -34.82337 | -58.46556 | 7467 ft | 259 kts | 51° |
| 2026-05-07 02:11 | -34.81741 | -58.45289 | 7162 ft | 259 kts | 51° |
| 2026-05-07 02:12 | -34.80464 | -58.42846 | 6563 ft | 253 kts | 45° |
| 2026-05-07 02:12 | -34.79790 | -58.41689 | 6264 ft | 253 kts | 45° |
| 2026-05-07 02:12 | -34.78456 | -58.39318 | 5663 ft | 255 kts | 47° |
| 2026-05-07 02:12 | -34.77812 | -58.38092 | 5360 ft | 255 kts | 49° |
| 2026-05-07 02:13 | -34.76889 | -58.36240 | 4909 ft | 255 kts | 50° |
| 2026-05-07 02:13 | -34.76018 | -58.34409 | 4463 ft | 251 kts | 51° |
| 2026-05-07 02:13 | -34.75159 | -58.32575 | 4012 ft | 248 kts | 52° |
| 2026-05-07 02:13 | -34.74323 | -58.30781 | 3687 ft | 237 kts | 52° |
| 2026-05-07 02:14 | -34.73532 | -58.29068 | 3336 ft | 227 kts | 53° |
| 2026-05-07 02:14 | -34.72768 | -58.27410 | 2996 ft | 225 kts | 53° |
| 2026-05-07 02:14 | -34.71974 | -58.25789 | 2739 ft | 216 kts | 48° |
| 2026-05-07 02:14 | -34.70846 | -58.24854 | 2836 ft | 184 kts | 14° |
| 2026-05-07 02:15 | -34.69664 | -58.24612 | 2960 ft | 163 kts | 3° |
| 2026-05-07 02:15 | -34.68593 | -58.24473 | 3002 ft | 148 kts | 2° |
| 2026-05-07 02:15 | -34.67608 | -58.24354 | 2973 ft | 134 kts | 2° |
| 2026-05-07 02:15 | -34.66733 | -58.24357 | 2936 ft | 127 kts | 347° |
| 2026-05-07 02:16 | -34.65960 | -58.24925 | 3016 ft | 140 kts | 319° |
| 2026-05-07 02:16 | -34.65294 | -58.25778 | 3041 ft | 134 kts | 330° |
| 2026-05-07 02:16 | -34.64454 | -58.26038 | 3106 ft | 121 kts | 341° |
| 2026-05-07 02:16 | -34.63875 | -58.26756 | 3169 ft | 124 kts | 307° |
| 2026-05-07 02:17 | -34.63617 | -58.27755 | 3446 ft | 123 kts | 291° |
| 2026-05-07 02:17 | -34.63495 | -58.28777 | 3599 ft | 127 kts | 290° |
| 2026-05-07 02:17 | -34.63206 | -58.29783 | 3265 ft | 126 kts | 304° |
| 2026-05-07 02:17 | -34.62714 | -58.30706 | 2807 ft | 133 kts | 311° |
| 2026-05-07 02:18 | -34.62106 | -58.31540 | 2447 ft | 132 kts | 319° |
| 2026-05-07 02:18 | -34.61437 | -58.32337 | 2065 ft | 136 kts | 320° |
| 2026-05-07 02:18 | -34.60753 | -58.33151 | 1711 ft | 138 kts | 320° |
| 2026-05-07 02:18 | -34.60038 | -58.33908 | 1381 ft | 137 kts | 324° |
| 2026-05-07 02:19 | -34.59252 | -58.34625 | 1114 ft | 146 kts | 324° |
| 2026-05-07 02:19 | -34.58619 | -58.35588 | 1026 ft | 144 kts | 299° |
| 2026-05-07 02:19 | -34.58367 | -58.36747 | 762 ft | 148 kts | 288° |
| 2026-05-07 02:19 | -34.57993 | -58.37954 | 609 ft | 150 kts | 297° |
| 2026-05-07 02:20 | -34.57413 | -58.39011 | 428 ft | 151 kts | 307° |
| 2026-05-07 02:20 | -34.56796 | -58.40038 | 165 ft | 150 kts | 306° |
| 2026-05-07 02:20 | -34.56232 | -58.41019 | 38 ft | 130 kts | 304° |
| 2026-05-07 02:20 | -34.55811 | -58.41782 | 28 ft | 64 kts | 306° |
| 2026-05-07 02:21 | -34.55665 | -58.42039 | 28 ft | 34 kts | 303° |
| 2026-05-07 02:21 | -34.55565 | -58.42220 | 28 ft | 21 kts | 303° |
| 2026-05-07 02:21 | -34.55479 | -58.42374 | 28 ft | 23 kts | 304° |
| 2026-05-07 02:21 | -34.55405 | -58.42418 | 28 ft | 9 kts | 59° |
| 2026-05-07 02:22 | -34.55399 | -58.42353 | 28 ft | 7 kts | 96° |
| 2026-05-07 02:22 | -34.55406 | -58.42313 | 28 ft | 5 kts | 104° |
| 2026-05-07 02:22 | -34.55426 | -58.42272 | 28 ft | 7 kts | 126° |
| 2026-05-07 02:22 | -34.55459 | -58.42217 | 28 ft | 9 kts | 126° |
| 2026-05-07 02:23 | -34.55502 | -58.42146 | 28 ft | 12 kts | 127° |
| 2026-05-07 02:23 | -34.55549 | -58.42072 | 28 ft | 10 kts | 128° |
| 2026-05-07 02:23 | -34.55595 | -58.42000 | 28 ft | 12 kts | 126° |
| 2026-05-07 02:23 | -34.55648 | -58.41910 | 28 ft | 13 kts | 124° |
| 2026-05-07 02:24 | -34.55684 | -58.41844 | 28 ft | 9 kts | 123° |
| 2026-05-07 02:24 | -34.55723 | -58.41774 | 28 ft | 11 kts | 123° |
| 2026-05-07 02:24 | -34.55767 | -58.41686 | 28 ft | 13 kts | 117° |
| 2026-05-07 02:24 | -34.55811 | -58.41580 | 28 ft | 10 kts | 117° |
| 2026-05-07 02:25 | -34.55846 | -58.41497 | 28 ft | 12 kts | 117° |
| 2026-05-07 02:25 | -34.55887 | -58.41398 | 28 ft | 12 kts | 117° |
| 2026-05-07 02:25 | -34.55901 | -58.41324 | 28 ft | 6 kts | 52° |
| 2026-05-07 02:25 | -34.55869 | -58.41295 | 28 ft | 6 kts | 358° |
| 2026-05-07 02:26 | -34.55837 | -58.41333 | 28 ft | 8 kts | 310° |
| 2026-05-07 02:26 | -34.55798 | -58.41392 | 28 ft | 10 kts | 310° |
| 2026-05-07 02:26 | -34.55757 | -58.41426 | 28 ft | 6 kts | 358° |
| 2026-05-07 02:26 | -34.55725 | -58.41408 | 28 ft | 2 kts | 32° |
| 2026-05-07 02:27 | -34.55722 | -58.41406 | 28 ft | 0 kts | 33° |